Time;durP1;ratioP1;P1;durP2;ratioP2;P2;SDS_P1;SDS_P2;PMS_P1;PMS_P2;Temp;Humidity;BMP_temperature;BMP_pressure;BME280_temperature;BME280_humidity;BME280_pressure;Samples;Min_cycle;Max_cycle;Signal;HPM_P1;HPM_P2
2023/09/12 06:06:29;;;;;;;12.48;7.28;;;17.50;70.90;;;;;;6245129;22;20046;-71
2023/09/12 06:08:57;;;;;;;13.77;7.65;;;17.40;70.70;;;;;;6220169;22;20004;-72
2023/09/12 06:11:25;;;;;;;13.60;7.05;;;17.40;71.30;;;;;;6246084;23;20012;-72
2023/09/12 06:13:52;;;;;;;11.43;7.53;;;17.40;70.90;;;;;;6246597;23;20370;-72
2023/09/12 06:16:19;;;;;;;10.18;7.35;;;17.30;71.50;;;;;;6246989;23;20016;-72
2023/09/12 06:18:48;;;;;;;10.43;6.90;;;17.30;70.70;;;;;;6246085;22;20000;-72
2023/09/12 06:21:15;;;;;;;9.93;6.60;;;17.30;70.10;;;;;;6246527;23;20000;-72
2023/09/12 06:23:42;;;;;;;11.75;6.85;;;17.30;69.50;;;;;;6246681;23;20000;-72
2023/09/12 06:26:10;;;;;;;10.73;6.57;;;17.30;69.80;;;;;;6246266;23;20071;-73
2023/09/12 06:28:37;;;;;;;9.50;6.40;;;17.30;70.60;;;;;;6246363;22;20431;-72
2023/09/12 06:31:04;;;;;;;13.07;7.82;;;17.20;70.40;;;;;;6246281;23;20000;-72
2023/09/12 06:33:31;;;;;;;13.70;7.40;;;17.30;70.90;;;;;;6219778;23;20012;-72
2023/09/12 06:35:59;;;;;;;9.55;6.00;;;17.20;70.90;;;;;;6246974;23;20004;-72
2023/09/12 06:38:26;;;;;;;9.23;6.70;;;17.20;70.10;;;;;;6219735;23;20012;-72
2023/09/12 06:40:53;;;;;;;13.55;6.95;;;17.20;70.60;;;;;;6219238;23;20050;-72
2023/09/12 06:43:20;;;;;;;12.13;6.82;;;17.20;70.90;;;;;;6246335;23;20068;-72
2023/09/12 06:45:48;;;;;;;9.88;6.43;;;17.20;71.30;;;;;;6245854;23;19996;-72
2023/09/12 06:48:16;;;;;;;10.93;6.82;;;17.20;71.50;;;;;;6219603;23;20383;-72
2023/09/12 06:50:43;;;;;;;12.30;6.20;;;17.20;71.60;;;;;;6246172;22;19996;-72
2023/09/12 06:53:10;;;;;;;11.60;5.95;;;17.20;71.70;;;;;;6220003;23;20004;-72
2023/09/12 06:55:38;;;;;;;10.65;6.72;;;17.20;71.80;;;;;;6246096;23;20004;-72
2023/09/12 06:58:05;;;;;;;8.45;5.80;;;17.20;72.10;;;;;;6245925;23;20016;-72
2023/09/12 07:00:32;;;;;;;13.48;7.13;;;17.20;71.80;;;;;;6245754;22;20004;-72
2023/09/12 07:03:00;;;;;;;8.98;6.03;;;17.20;72.40;;;;;;6246485;23;20051;-72
2023/09/12 07:05:27;;;;;;;12.10;6.72;;;17.10;71.90;;;;;;6246035;23;20024;-71
2023/09/12 07:07:54;;;;;;;9.93;5.93;;;17.10;72.00;;;;;;6245453;23;20005;-72
2023/09/12 07:10:22;;;;;;;10.85;6.18;;;17.00;72.10;;;;;;6245707;22;20095;-72
2023/09/12 07:12:49;;;;;;;10.20;5.65;;;17.00;71.90;;;;;;6246114;23;20012;-71
2023/09/12 07:15:16;;;;;;;10.45;5.32;;;17.00;71.30;;;;;;6219429;23;20012;-71
2023/09/12 07:17:43;;;;;;;9.10;5.38;;;17.00;71.30;;;;;;6244546;23;20502;-72
2023/09/12 07:20:11;;;;;;;9.30;5.95;;;17.00;71.50;;;;;;6244612;22;20075;-69
2023/09/12 07:22:40;;;;;;;10.98;5.20;;;17.00;71.80;;;;;;6244862;23;20015;-69
2023/09/12 07:25:09;;;;;;;11.43;6.15;;;16.90;71.50;;;;;;6245583;23;20019;-73
2023/09/12 07:27:36;;;;;;;8.73;6.18;;;16.90;72.20;;;;;;6218690;23;20004;-72
2023/09/12 07:30:04;;;;;;;7.85;6.05;;;16.90;71.90;;;;;;6219388;23;20009;-73
2023/09/12 07:32:31;;;;;;;13.40;6.57;;;16.90;71.50;;;;;;6245451;23;20012;-72
2023/09/12 07:34:59;;;;;;;11.20;6.35;;;16.90;71.40;;;;;;6245614;23;20004;-72
2023/09/12 07:37:26;;;;;;;10.60;6.93;;;16.80;71.50;;;;;;6244838;23;20023;-73
2023/09/12 07:39:53;;;;;;;12.65;7.13;;;16.80;71.40;;;;;;6245355;22;20004;-73
2023/09/12 07:42:24;;;;;;;15.60;7.43;;;16.80;71.40;;;;;;6219573;23;20054;-73
2023/09/12 07:44:51;;;;;;;10.15;6.53;;;16.80;71.70;;;;;;6194512;23;20123;-73
2023/09/12 07:47:19;;;;;;;10.82;6.32;;;16.80;71.60;;;;;;6240282;23;19996;-72
2023/09/12 07:49:46;;;;;;;12.43;6.65;;;16.70;71.60;;;;;;6242551;22;20034;-71
2023/09/12 07:52:13;;;;;;;8.52;6.18;;;16.70;71.70;;;;;;6242767;23;20010;-71
2023/09/12 07:54:40;;;;;;;10.95;6.15;;;16.70;71.70;;;;;;6215024;23;20008;-71
2023/09/12 07:57:08;;;;;;;9.40;5.80;;;16.70;71.50;;;;;;6242736;23;20016;-72
2023/09/12 07:59:35;;;;;;;7.68;5.47;;;16.70;71.40;;;;;;6215558;23;20004;-71
2023/09/12 08:02:02;;;;;;;13.75;5.95;;;16.70;71.60;;;;;;6238061;23;21138;-71
2023/09/12 08:04:30;;;;;;;10.05;5.47;;;16.70;71.60;;;;;;6240886;23;20292;-71
2023/09/12 08:06:57;;;;;;;11.48;5.97;;;16.70;71.40;;;;;;6241820;23;20004;-72
2023/09/12 08:09:28;;;;;;;12.45;5.72;;;16.60;71.60;;;;;;6241591;22;20015;-72
2023/09/12 08:11:56;;;;;;;11.95;6.00;;;16.60;72.20;;;;;;6214132;23;20339;-71
2023/09/12 08:14:23;;;;;;;11.95;6.10;;;16.60;72.50;;;;;;6242166;23;20004;-71
2023/09/12 08:16:50;;;;;;;9.95;6.47;;;16.50;72.20;;;;;;6215066;23;20040;-71
2023/09/12 08:19:17;;;;;;;9.07;5.68;;;16.50;72.50;;;;;;6241755;22;20076;-72
2023/09/12 08:21:45;;;;;;;11.02;6.43;;;16.50;72.70;;;;;;6214769;23;20087;-72
2023/09/12 08:24:12;;;;;;;13.73;6.65;;;16.50;72.60;;;;;;6240922;23;20031;-72
2023/09/12 08:26:40;;;;;;;11.57;6.43;;;16.40;72.80;;;;;;6237632;23;20083;-70
2023/09/12 08:29:07;;;;;;;14.73;6.45;;;16.40;73.30;;;;;;6241675;22;20067;-72
2023/09/12 08:31:34;;;;;;;9.85;6.53;;;16.40;73.70;;;;;;6242032;23;20004;-72
2023/09/12 08:34:01;;;;;;;10.88;6.90;;;16.30;73.70;;;;;;6240682;23;20028;-71
2023/09/12 08:36:29;;;;;;;8.70;5.95;;;16.30;73.80;;;;;;6241630;23;20015;-72
2023/09/12 08:38:56;;;;;;;11.85;5.72;;;16.30;74.00;;;;;;6241838;22;20015;-72
2023/09/12 08:41:23;;;;;;;9.60;5.95;;;16.30;73.90;;;;;;6241633;23;20095;-72
2023/09/12 08:43:59;;;;;;;12.15;6.20;;;16.30;73.80;;;;;;5086964;27;20425;-73
2023/09/12 08:46:26;;;;;;;8.65;5.90;;;16.30;73.90;;;;;;5067573;28;20047;-73
2023/09/12 08:48:57;;;;;;;7.45;5.63;;;16.30;74.00;;;;;;5086453;28;20038;-72
2023/09/12 08:51:24;;;;;;;11.07;5.82;;;16.30;74.20;;;;;;5085630;28;20016;-71
2023/09/12 08:53:52;;;;;;;11.82;5.85;;;16.30;73.90;;;;;;5084043;28;20028;-73
2023/09/12 08:56:19;;;;;;;11.05;5.90;;;16.30;74.30;;;;;;5064905;28;20052;-71
2023/09/12 08:58:47;;;;;;;11.48;6.35;;;16.40;74.40;;;;;;5064979;28;20233;-72
2023/09/12 09:01:14;;;;;;;11.18;5.90;;;16.30;74.70;;;;;;5066603;28;20094;-71
2023/09/12 09:03:42;;;;;;;7.60;5.43;;;16.30;74.50;;;;;;5065071;28;20033;-71
2023/09/12 09:06:10;;;;;;;10.98;5.57;;;16.30;74.40;;;;;;5065130;28;20047;-71
2023/09/12 09:08:37;;;;;;;6.78;5.20;;;16.30;74.50;;;;;;5047770;28;20110;-72
2023/09/12 09:11:06;;;;;;;12.40;6.63;;;16.30;74.40;;;;;;5085508;28;20034;-72
2023/09/12 09:13:33;;;;;;;11.35;5.50;;;16.30;74.50;;;;;;5086237;28;20210;-71
2023/09/12 09:16:13;;;;;;;13.05;6.25;;;16.20;75.00;;;;;;5082533;28;20028;-72
2023/09/12 09:19:12;;;;;;;11.90;6.20;;;16.20;75.00;;;;;;5065504;28;20095;-71
2023/09/12 09:21:42;;;;;;;9.05;5.72;;;16.20;75.20;;;;;;5065498;28;20037;-72
2023/09/12 09:24:10;;;;;;;12.23;5.63;;;16.20;75.60;;;;;;5065495;28;20505;-72
2023/09/12 09:26:49;;;;;;;11.77;5.72;;;16.20;75.60;;;;;;5045946;28;20104;-72
2023/09/12 09:29:21;;;;;;;13.30;6.68;;;16.10;75.40;;;;;;5047952;28;20028;-72
2023/09/12 09:31:49;;;;;;;9.85;5.80;;;16.10;75.50;;;;;;5064385;28;20439;-72
2023/09/12 09:34:18;;;;;;;10.32;5.97;;;16.20;75.60;;;;;;5048218;28;20032;-72
2023/09/12 09:36:49;;;;;;;10.75;5.97;;;16.10;76.00;;;;;;5064512;28;20021;-72
2023/09/12 09:39:20;;;;;;;10.18;5.97;;;16.10;75.90;;;;;;5070000;28;20509;-72
2023/09/12 09:41:48;;;;;;;9.65;5.60;;;16.10;76.00;;;;;;5085859;28;20534;-71
2023/09/12 09:44:16;;;;;;;10.63;5.68;;;16.10;76.20;;;;;;5085764;28;20042;-70
2023/09/12 09:46:46;;;;;;;10.73;5.18;;;16.10;76.50;;;;;;5083988;28;20019;-70
2023/09/12 09:49:19;;;;;;;11.75;5.53;;;16.10;76.20;;;;;;5075026;28;20399;-70
2023/09/12 09:51:47;;;;;;;16.65;6.18;;;16.10;76.40;;;;;;5065315;28;20086;-71
2023/09/12 09:54:14;;;;;;;9.80;5.55;;;16.10;76.50;;;;;;5058084;28;20029;-72
2023/09/12 09:56:49;;;;;;;11.50;5.75;;;16.10;76.30;;;;;;5051128;28;20029;-72
2023/09/12 09:59:21;;;;;;;12.95;5.70;;;16.00;76.60;;;;;;5051321;28;20075;-72
2023/09/12 10:01:51;;;;;;;12.68;5.78;;;16.00;76.60;;;;;;5061721;28;20606;-70
2023/09/12 10:04:18;;;;;;;10.07;5.80;;;16.00;76.70;;;;;;5052110;28;20025;-72
2023/09/12 10:06:46;;;;;;;10.45;5.82;;;16.00;76.60;;;;;;5063096;28;20028;-72
2023/09/12 10:09:14;;;;;;;12.07;5.80;;;16.00;76.50;;;;;;5052520;28;20028;-72
2023/09/12 10:11:45;;;;;;;11.50;5.45;;;16.00;76.70;;;;;;5037493;28;20029;-71
2023/09/12 10:14:13;;;;;;;12.68;5.60;;;16.00;76.80;;;;;;5071703;28;20535;-71
2023/09/12 10:16:45;;;;;;;14.82;5.97;;;16.00;77.10;;;;;;5054138;28;20176;-71
2023/09/12 10:19:17;;;;;;;10.90;5.80;;;16.00;77.50;;;;;;5064594;28;20040;-73
2023/09/12 10:22:16;;;;;;;11.00;6.30;;;16.00;77.40;;;;;;5051444;28;20031;-72
2023/09/12 10:24:44;;;;;;;12.98;6.32;;;15.90;77.60;;;;;;5069119;28;20123;-73
2023/09/12 10:27:11;;;;;;;12.32;5.95;;;15.90;77.60;;;;;;5053723;28;20147;-72
2023/09/12 10:29:38;;;;;;;10.32;5.55;;;15.90;77.60;;;;;;5059926;28;20107;-72
2023/09/12 10:32:06;;;;;;;12.63;6.18;;;15.90;77.70;;;;;;5071683;28;20099;-73
2023/09/12 10:34:33;;;;;;;10.88;5.55;;;15.90;77.90;;;;;;5068891;28;20479;-72
2023/09/12 10:37:01;;;;;;;9.60;5.45;;;15.80;78.00;;;;;;5053474;28;20059;-72
2023/09/12 10:39:28;;;;;;;10.00;6.13;;;15.80;78.00;;;;;;5070479;28;20016;-72
2023/09/12 10:41:56;;;;;;;9.35;6.13;;;15.80;78.10;;;;;;5053504;28;20055;-69
2023/09/12 10:44:23;;;;;;;10.00;5.97;;;15.70;78.30;;;;;;5068602;28;20037;-70
2023/09/12 10:46:50;;;;;;;12.77;6.22;;;15.70;78.30;;;;;;5032684;28;20039;-71
2023/09/12 10:49:18;;;;;;;13.18;6.57;;;15.70;78.40;;;;;;5033277;28;20035;-71
2023/09/12 10:51:47;;;;;;;11.52;6.25;;;15.70;78.60;;;;;;5033407;28;20032;-70
2023/09/12 10:54:15;;;;;;;9.23;6.25;;;15.60;78.60;;;;;;5033740;28;20017;-73
2023/09/12 10:56:44;;;;;;;11.52;6.38;;;15.60;78.70;;;;;;5068613;28;20031;-72
2023/09/12 10:59:12;;;;;;;11.43;6.70;;;15.60;79.00;;;;;;5068822;28;20040;-72
2023/09/12 11:01:40;;;;;;;12.82;6.88;;;15.50;79.10;;;;;;5070830;28;20541;-72
2023/09/12 11:04:27;;;;;;;11.85;6.82;;;15.50;79.10;;;;;;5049388;28;20040;-70
2023/09/12 11:06:55;;;;;;;11.90;6.47;;;15.50;79.20;;;;;;5049612;28;20035;-72
2023/09/12 11:09:23;;;;;;;12.23;6.97;;;15.50;79.20;;;;;;5068039;28;20037;-71
2023/09/12 11:11:58;;;;;;;11.07;6.90;;;15.40;79.50;;;;;;5061406;28;20028;-71
2023/09/12 11:14:26;;;;;;;17.48;7.57;;;15.40;79.50;;;;;;5072858;28;20032;-71
2023/09/12 11:17:08;;;;;;;13.35;6.80;;;15.40;79.50;;;;;;5057895;28;20467;-71
2023/09/12 11:19:48;;;;;;;13.82;7.10;;;15.40;79.50;;;;;;5058898;28;20030;-71
2023/09/12 11:22:34;;;;;;;10.52;6.75;;;15.30;79.50;;;;;;5060170;28;20033;-71
2023/09/12 11:25:27;;;;;;;11.65;7.43;;;15.30;79.60;;;;;;5052924;28;20108;-71
2023/09/12 11:27:54;;;;;;;13.80;7.50;;;15.30;79.80;;;;;;5054082;28;20017;-71
2023/09/12 11:30:23;;;;;;;11.18;7.65;;;15.20;79.90;;;;;;5070414;28;20025;-71
2023/09/12 11:32:55;;;;;;;13.55;8.15;;;15.30;79.90;;;;;;5058042;28;20017;-71
2023/09/12 11:35:26;;;;;;;14.23;8.38;;;15.30;80.00;;;;;;5052904;28;20095;-71
2023/09/12 11:37:55;;;;;;;17.70;8.35;;;15.30;79.60;;;;;;5072303;28;20073;-71
2023/09/12 11:40:34;;;;;;;14.68;8.32;;;15.30;79.50;;;;;;5072889;28;20387;-71
2023/09/12 11:43:04;;;;;;;15.75;7.32;;;15.30;79.50;;;;;;5052698;28;20052;-71
2023/09/12 11:45:32;;;;;;;13.10;8.60;;;15.30;79.40;;;;;;5069362;28;20025;-71
2023/09/12 11:47:59;;;;;;;16.30;8.30;;;15.30;79.50;;;;;;5071476;28;20047;-70
2023/09/12 11:50:28;;;;;;;12.85;8.48;;;15.30;79.60;;;;;;5073075;28;20035;-71
2023/09/12 11:53:06;;;;;;;12.77;7.47;;;15.30;79.60;;;;;;5066308;28;20052;-71
2023/09/12 11:55:46;;;;;;;13.68;8.02;;;15.30;79.30;;;;;;5062434;28;20390;-71
2023/09/12 11:58:16;;;;;;;13.32;7.88;;;15.30;79.30;;;;;;5039986;28;20398;-70
2023/09/12 12:00:51;;;;;;;12.82;7.70;;;15.20;79.60;;;;;;5052254;28;20116;-71
2023/09/12 12:03:22;;;;;;;11.98;8.15;;;15.10;80.00;;;;;;5070300;28;20044;-71
2023/09/12 12:05:49;;;;;;;11.65;7.70;;;15.00;80.20;;;;;;5059861;28;20033;-71
2023/09/12 12:08:17;;;;;;;14.00;8.32;;;15.00;80.40;;;;;;5034534;28;20024;-71
2023/09/12 12:10:49;;;;;;;18.23;9.57;;;14.90;80.50;;;;;;5071766;28;20383;-71
2023/09/12 12:13:20;;;;;;;12.98;8.82;;;15.00;80.60;;;;;;5059099;28;20031;-71
2023/09/12 12:15:47;;;;;;;14.63;8.57;;;14.90;80.90;;;;;;5054335;28;20029;-70
2023/09/12 12:18:15;;;;;;;13.57;8.52;;;14.80;80.80;;;;;;5034183;28;20066;-71
2023/09/12 12:20:42;;;;;;;13.30;8.38;;;14.80;80.80;;;;;;5060075;28;20032;-70
2023/09/12 12:23:09;;;;;;;12.43;8.45;;;14.80;80.90;;;;;;5035317;28;20455;-71
2023/09/12 12:25:37;;;;;;;14.43;8.90;;;14.80;81.20;;;;;;5064467;28;20021;-71
2023/09/12 12:28:04;;;;;;;11.60;8.40;;;14.80;81.10;;;;;;5063582;28;20021;-71
2023/09/12 12:30:32;;;;;;;12.05;8.68;;;14.80;80.90;;;;;;5050449;28;20078;-70
2023/09/12 12:33:02;;;;;;;14.82;9.18;;;14.80;81.10;;;;;;5053550;28;20029;-70
2023/09/12 12:35:30;;;;;;;13.15;8.43;;;14.80;81.20;;;;;;5052214;28;20365;-70
2023/09/12 12:37:57;;;;;;;11.65;8.32;;;14.80;81.40;;;;;;5051506;28;20407;-71
2023/09/12 12:40:25;;;;;;;15.05;8.75;;;14.80;81.50;;;;;;5072005;28;20013;-70
2023/09/12 12:42:52;;;;;;;13.77;8.60;;;14.70;81.70;;;;;;5055686;28;20128;-70
2023/09/12 12:45:21;;;;;;;13.85;8.38;;;14.70;81.70;;;;;;5056318;28;20395;-70
2023/09/12 12:47:55;;;;;;;13.82;8.68;;;14.70;81.90;;;;;;5052093;28;20033;-70
2023/09/12 12:50:22;;;;;;;12.05;8.65;;;14.60;82.20;;;;;;5066400;28;20044;-72
2023/09/12 12:52:49;;;;;;;11.93;8.23;;;14.60;82.20;;;;;;5051811;28;20033;-72
2023/09/12 12:55:17;;;;;;;12.55;8.85;;;14.60;82.20;;;;;;5054405;28;20029;-71
2023/09/12 12:57:45;;;;;;;12.90;9.23;;;14.60;82.20;;;;;;5061470;28;20021;-72
2023/09/12 13:00:13;;;;;;;13.50;9.52;;;14.50;82.30;;;;;;5067576;28;20028;-72
2023/09/12 13:02:41;;;;;;;16.25;8.10;;;14.50;82.40;;;;;;5060729;28;20074;-70
2023/09/12 13:05:30;;;;;;;12.75;9.02;;;14.40;82.70;;;;;;5049817;28;20485;-70
2023/09/12 13:07:57;;;;;;;14.38;9.45;;;14.40;82.70;;;;;;5065148;28;20048;-71
2023/09/12 13:10:24;;;;;;;17.17;10.02;;;14.40;82.80;;;;;;5058274;28;20123;-71
2023/09/12 13:12:51;;;;;;;13.68;9.05;;;14.40;82.90;;;;;;5064241;28;20386;-71
2023/09/12 13:15:19;;;;;;;15.63;9.60;;;14.40;83.00;;;;;;5050295;28;20025;-71
2023/09/12 13:17:46;;;;;;;13.77;9.13;;;14.40;83.00;;;;;;5051563;28;20048;-72
2023/09/12 13:20:13;;;;;;;14.07;9.60;;;14.30;83.10;;;;;;5041571;28;20033;-72
2023/09/12 13:22:43;;;;;;;14.10;9.77;;;14.30;82.90;;;;;;5051770;28;20040;-71
2023/09/12 13:25:10;;;;;;;15.70;9.73;;;14.30;83.10;;;;;;5051451;28;20122;-71
2023/09/12 13:27:37;;;;;;;18.05;10.80;;;14.30;83.10;;;;;;5043440;28;20021;-70
2023/09/12 13:30:05;;;;;;;15.82;10.43;;;14.20;83.00;;;;;;5062762;28;20426;-71
2023/09/12 13:32:33;;;;;;;13.15;10.00;;;14.20;83.10;;;;;;5055201;28;20110;-71
2023/09/12 13:35:00;;;;;;;15.77;10.00;;;14.20;83.10;;;;;;5065914;28;20059;-70
2023/09/12 13:37:27;;;;;;;13.57;9.43;;;14.20;83.20;;;;;;5069953;28;20029;-70
2023/09/12 13:39:55;;;;;;;16.88;9.95;;;14.20;83.20;;;;;;5055675;28;20028;-72
2023/09/12 13:42:22;;;;;;;15.07;9.38;;;14.20;83.30;;;;;;5055339;28;20548;-70
2023/09/12 13:44:50;;;;;;;12.63;9.55;;;14.20;83.50;;;;;;5068323;28;20044;-70
2023/09/12 13:47:21;;;;;;;14.50;9.52;;;14.20;83.50;;;;;;5056008;28;20033;-70
2023/09/12 13:49:51;;;;;;;15.70;9.95;;;14.20;83.50;;;;;;5073700;28;20039;-70
2023/09/12 13:52:22;;;;;;;16.23;9.15;;;14.20;83.30;;;;;;5073816;28;20048;-71
2023/09/12 13:54:49;;;;;;;15.45;9.73;;;14.20;83.20;;;;;;5063041;28;20120;-71
2023/09/12 13:57:17;;;;;;;14.43;9.15;;;14.20;83.30;;;;;;5068802;28;20482;-71
2023/09/12 13:59:44;;;;;;;14.80;9.45;;;14.20;83.30;;;;;;5056255;28;20024;-71
2023/09/12 14:02:12;;;;;;;13.32;9.52;;;14.10;83.20;;;;;;5064939;28;20037;-71
2023/09/12 14:04:40;;;;;;;12.98;9.85;;;14.10;83.30;;;;;;5065259;28;20123;-71
2023/09/12 14:07:07;;;;;;;14.15;9.82;;;14.10;83.40;;;;;;5063080;28;20519;-71
2023/09/12 14:09:34;;;;;;;13.27;9.90;;;14.10;83.40;;;;;;5064526;28;20037;-72
2023/09/12 14:12:01;;;;;;;14.93;10.20;;;14.00;83.50;;;;;;5070377;28;20386;-71
2023/09/12 14:14:28;;;;;;;15.55;10.55;;;14.00;83.50;;;;;;5058720;28;20025;-71
2023/09/12 14:16:56;;;;;;;16.38;10.38;;;14.00;83.60;;;;;;5068029;28;20100;-71
2023/09/12 14:19:23;;;;;;;15.68;10.27;;;14.00;83.70;;;;;;5054503;28;20017;-71
2023/09/12 14:21:50;;;;;;;14.88;10.85;;;13.90;83.80;;;;;;5054421;28;20540;-70
2023/09/12 14:24:17;;;;;;;16.33;10.93;;;13.90;83.70;;;;;;5054556;28;20036;-71
2023/09/12 14:26:44;;;;;;;17.85;10.32;;;13.90;83.80;;;;;;5054946;28;20032;-71
2023/09/12 14:29:12;;;;;;;15.05;10.23;;;13.90;83.80;;;;;;5054116;28;20039;-71
2023/09/12 14:31:39;;;;;;;21.35;10.75;;;13.90;83.70;;;;;;5054713;28;20024;-71
2023/09/12 14:34:07;;;;;;;16.63;10.60;;;13.80;83.90;;;;;;5054161;28;20368;-71
2023/09/12 14:36:35;;;;;;;18.30;10.38;;;13.80;83.70;;;;;;5054331;28;20491;-71
2023/09/12 14:39:02;;;;;;;13.90;9.63;;;13.80;83.70;;;;;;5053735;28;20059;-71
2023/09/12 14:41:30;;;;;;;17.88;10.13;;;13.80;83.90;;;;;;5059033;28;20087;-70
2023/09/12 14:43:57;;;;;;;15.00;9.88;;;13.70;84.00;;;;;;5072730;28;20090;-71
2023/09/12 14:46:24;;;;;;;14.38;9.95;;;13.70;84.30;;;;;;5042810;28;20029;-71
2023/09/12 14:48:51;;;;;;;18.98;9.82;;;13.70;84.40;;;;;;5053435;28;20390;-72
2023/09/12 14:51:18;;;;;;;14.38;10.43;;;13.70;84.50;;;;;;5058163;28;20025;-71
2023/09/12 14:53:46;;;;;;;21.73;10.10;;;13.70;84.70;;;;;;5073902;28;20029;-72
2023/09/12 14:56:13;;;;;;;16.52;9.45;;;13.70;85.00;;;;;;5050716;28;20025;-73
2023/09/12 14:58:40;;;;;;;16.42;9.48;;;13.70;85.30;;;;;;5055049;28;20028;-70
2023/09/12 15:01:07;;;;;;;13.10;9.32;;;13.70;85.70;;;;;;5057875;28;20020;-72
2023/09/12 15:03:37;;;;;;;12.13;8.65;;;13.70;86.00;;;;;;5071063;28;20041;-70
2023/09/12 15:06:07;;;;;;;16.05;10.27;;;13.70;85.70;;;;;;5073681;28;20125;-70
2023/09/12 15:08:36;;;;;;;12.75;9.43;;;13.60;85.90;;;;;;5052807;28;20040;-70
2023/09/12 15:11:05;;;;;;;13.70;9.25;;;13.70;86.50;;;;;;5056629;28;20033;-71
2023/09/12 15:13:32;;;;;;;14.75;9.35;;;13.60;86.90;;;;;;5070543;28;20491;-71
2023/09/12 15:15:59;;;;;;;12.95;8.82;;;13.60;86.90;;;;;;5072281;28;20037;-71
2023/09/12 15:18:27;;;;;;;17.02;9.55;;;13.60;86.80;;;;;;5073115;28;20422;-70
2023/09/12 15:20:54;;;;;;;12.82;9.15;;;13.50;86.60;;;;;;5066613;28;20027;-71
2023/09/12 15:23:22;;;;;;;15.20;9.35;;;13.50;86.60;;;;;;5053172;28;20036;-70
2023/09/12 15:25:50;;;;;;;15.00;9.57;;;13.50;86.50;;;;;;5051478;28;20052;-71
2023/09/12 15:28:17;;;;;;;13.40;9.55;;;13.50;86.50;;;;;;5067447;28;20032;-70
2023/09/12 15:30:45;;;;;;;15.35;9.43;;;13.50;86.80;;;;;;5071826;28;20094;-71
2023/09/12 15:33:12;;;;;;;13.13;9.27;;;13.50;86.50;;;;;;5072987;28;20025;-71
2023/09/12 15:35:39;;;;;;;14.52;9.38;;;13.40;86.40;;;;;;5053312;28;20682;-71
2023/09/12 15:38:07;;;;;;;14.65;10.18;;;13.40;86.60;;;;;;5059657;28;20028;-71
2023/09/12 15:40:34;;;;;;;14.38;9.43;;;13.40;86.70;;;;;;5071061;28;20021;-71
2023/09/12 15:43:02;;;;;;;13.05;9.63;;;13.40;86.60;;;;;;5053618;28;20124;-71
2023/09/12 15:45:29;;;;;;;12.52;8.85;;;13.40;86.60;;;;;;5058118;28;20374;-71
2023/09/12 15:47:56;;;;;;;13.88;9.88;;;13.40;86.60;;;;;;5069892;28;20035;-71
2023/09/12 15:50:24;;;;;;;12.77;10.13;;;13.40;86.60;;;;;;5057645;28;20490;-71
2023/09/12 15:52:51;;;;;;;14.25;9.68;;;13.40;86.70;;;;;;5071132;28;20025;-71
2023/09/12 15:55:18;;;;;;;12.68;9.63;;;13.30;86.90;;;;;;5071250;28;20463;-71
2023/09/12 15:57:45;;;;;;;15.38;10.15;;;13.30;86.70;;;;;;5071647;28;20064;-71
2023/09/12 16:00:13;;;;;;;13.77;9.95;;;13.30;86.80;;;;;;5071367;28;20482;-71
2023/09/12 16:02:42;;;;;;;13.50;10.23;;;13.30;86.90;;;;;;5069160;28;20087;-70
2023/09/12 16:05:09;;;;;;;14.00;10.52;;;13.30;86.90;;;;;;5059798;28;20436;-71
2023/09/12 16:07:37;;;;;;;14.05;9.98;;;13.30;86.90;;;;;;5071490;28;20020;-71
2023/09/12 16:10:06;;;;;;;15.13;10.63;;;13.30;87.00;;;;;;5065016;28;20569;-71
2023/09/12 16:12:34;;;;;;;14.00;10.63;;;13.20;87.10;;;;;;5069993;28;20040;-71
2023/09/12 16:15:01;;;;;;;14.63;9.73;;;13.20;87.00;;;;;;5059525;28;20429;-70
2023/09/12 16:17:28;;;;;;;16.70;11.18;;;13.20;87.00;;;;;;5068941;28;20025;-70
2023/09/12 16:19:56;;;;;;;19.73;10.27;;;13.20;87.30;;;;;;5066148;28;20023;-71
2023/09/12 16:22:23;;;;;;;16.08;10.48;;;13.20;87.10;;;;;;5050845;28;20033;-71
2023/09/12 16:24:50;;;;;;;12.27;10.10;;;13.20;87.20;;;;;;5064618;28;20054;-71
2023/09/12 16:27:18;;;;;;;14.07;10.23;;;13.20;87.30;;;;;;5072197;28;20471;-71
2023/09/12 16:29:45;;;;;;;19.27;10.88;;;13.20;87.50;;;;;;5058860;28;20017;-71
2023/09/12 16:32:13;;;;;;;12.82;9.88;;;13.20;87.60;;;;;;5051574;28;20033;-71
2023/09/12 16:34:40;;;;;;;15.93;10.45;;;13.20;87.50;;;;;;5051981;28;20025;-71
2023/09/12 16:37:07;;;;;;;14.38;9.75;;;13.20;87.40;;;;;;5051883;28;20398;-71
2023/09/12 16:39:39;;;;;;;13.30;9.80;;;13.20;87.30;;;;;;5050472;28;20028;-71
2023/09/12 16:42:06;;;;;;;14.55;10.57;;;13.20;87.20;;;;;;5050783;28;20513;-71
2023/09/12 16:44:34;;;;;;;13.30;10.10;;;13.20;87.20;;;;;;5050546;28;20033;-70
2023/09/12 16:47:01;;;;;;;13.70;9.52;;;13.10;86.90;;;;;;5056943;28;20026;-71
2023/09/12 16:49:28;;;;;;;16.13;10.13;;;13.10;86.70;;;;;;5050591;28;20364;-71
2023/09/12 16:51:55;;;;;;;18.05;10.20;;;13.00;87.00;;;;;;5053192;28;20021;-71
2023/09/12 16:54:22;;;;;;;13.90;10.40;;;13.00;87.00;;;;;;5070702;28;20021;-71
2023/09/12 16:56:50;;;;;;;15.38;10.07;;;13.00;87.20;;;;;;5070899;28;20016;-71
2023/09/12 16:59:17;;;;;;;14.25;10.05;;;13.00;87.40;;;;;;5070265;28;20040;-71
2023/09/12 17:01:44;;;;;;;13.70;10.23;;;12.90;87.30;;;;;;5068349;28;20031;-70
2023/09/12 17:04:11;;;;;;;13.40;9.88;;;12.90;87.60;;;;;;5072633;28;20522;-70
2023/09/12 17:06:39;;;;;;;16.67;9.90;;;12.80;87.70;;;;;;5057936;28;20133;-70
2023/09/12 17:09:06;;;;;;;16.67;10.82;;;12.70;87.60;;;;;;5068700;28;20020;-71
2023/09/12 17:11:33;;;;;;;19.00;11.07;;;12.70;87.70;;;;;;5056801;28;20055;-70
2023/09/12 17:14:01;;;;;;;16.50;10.77;;;12.70;87.80;;;;;;5074089;28;20466;-70
2023/09/12 17:16:28;;;;;;;13.70;10.73;;;12.70;87.90;;;;;;5055707;28;20033;-70
2023/09/12 17:18:55;;;;;;;17.52;11.02;;;12.70;87.90;;;;;;5068721;28;20059;-71
2023/09/12 17:21:22;;;;;;;16.02;10.15;;;12.70;88.00;;;;;;5072531;28;20043;-70
2023/09/12 17:23:50;;;;;;;14.90;10.05;;;12.70;87.80;;;;;;5075283;28;20056;-70
2023/09/12 17:26:17;;;;;;;15.77;10.57;;;12.70;88.00;;;;;;5066341;28;20509;-70
2023/09/12 17:28:44;;;;;;;16.88;11.00;;;12.60;88.00;;;;;;5071294;28;20083;-71
2023/09/12 17:31:14;;;;;;;14.70;10.93;;;12.60;88.10;;;;;;5064092;28;20029;-70
2023/09/12 17:33:41;;;;;;;17.63;12.13;;;12.60;88.20;;;;;;5075369;28;20048;-71
2023/09/12 17:36:09;;;;;;;18.50;12.05;;;12.60;88.10;;;;;;5073876;28;20063;-71
2023/09/12 17:38:36;;;;;;;18.23;12.07;;;12.60;88.20;;;;;;5059480;28;20043;-71
2023/09/12 17:41:03;;;;;;;17.10;12.32;;;12.60;88.10;;;;;;5042745;28;20087;-71
2023/09/12 17:43:30;;;;;;;18.63;11.48;;;12.60;88.20;;;;;;5059127;28;20045;-71
2023/09/12 17:45:57;;;;;;;17.55;11.68;;;12.70;88.10;;;;;;5073028;28;20360;-71
2023/09/12 17:48:25;;;;;;;19.15;11.77;;;12.70;88.00;;;;;;5075262;28;20074;-71
2023/09/12 17:50:52;;;;;;;14.90;11.68;;;12.70;88.10;;;;;;5074212;28;20020;-71
2023/09/12 17:53:22;;;;;;;21.30;11.13;;;12.60;88.20;;;;;;5073770;28;20115;-71
2023/09/12 17:55:52;;;;;;;15.20;12.00;;;12.60;88.20;;;;;;5073273;28;20036;-71
2023/09/12 17:58:19;;;;;;;18.48;11.77;;;12.60;88.30;;;;;;5072631;28;20036;-71
2023/09/12 18:00:59;;;;;;;17.20;11.60;;;12.70;88.20;;;;;;5055729;28;20052;-71
2023/09/12 18:03:27;;;;;;;16.00;11.43;;;12.70;88.20;;;;;;5057390;28;20040;-71
2023/09/12 18:05:54;;;;;;;21.45;12.20;;;12.60;88.20;;;;;;5069284;28;20485;-71
2023/09/12 18:08:23;;;;;;;20.05;11.90;;;12.60;88.10;;;;;;5051607;28;20032;-71
2023/09/12 18:10:50;;;;;;;16.45;12.10;;;12.60;88.10;;;;;;5056298;28;20017;-71
2023/09/12 18:13:18;;;;;;;20.17;12.32;;;12.60;88.00;;;;;;5062894;28;20024;-71
2023/09/12 18:15:46;;;;;;;18.77;12.57;;;12.50;88.10;;;;;;5063787;28;20060;-70
2023/09/12 18:18:13;;;;;;;20.08;13.05;;;12.50;88.20;;;;;;5069544;28;20056;-71
2023/09/12 18:20:41;;;;;;;22.40;12.93;;;12.50;88.10;;;;;;5074055;28;20020;-71
2023/09/12 18:23:08;;;;;;;22.15;13.85;;;12.40;88.10;;;;;;5059230;28;20044;-71
2023/09/12 18:25:36;;;;;;;22.02;14.02;;;12.40;88.00;;;;;;5053101;28;20048;-71
2023/09/12 18:28:03;;;;;;;22.40;15.02;;;12.40;87.90;;;;;;5060873;28;20127;-71
2023/09/12 18:30:34;;;;;;;24.73;15.70;;;12.30;87.90;;;;;;5071710;28;20024;-72
2023/09/12 18:33:02;;;;;;;23.77;16.38;;;12.30;87.90;;;;;;5065917;28;20033;-70
2023/09/12 18:35:29;;;;;;;25.48;17.48;;;12.20;87.90;;;;;;5070859;28;20051;-70
2023/09/12 18:37:56;;;;;;;28.92;18.10;;;12.20;87.70;;;;;;5074403;28;20063;-70
2023/09/12 18:40:24;;;;;;;23.77;17.30;;;12.20;87.90;;;;;;5073981;28;20040;-70
2023/09/12 18:42:51;;;;;;;32.50;20.10;;;12.20;87.80;;;;;;5052392;28;20041;-71
2023/09/12 18:45:19;;;;;;;30.13;19.60;;;12.20;87.90;;;;;;5069446;28;20037;-70
2023/09/12 18:47:46;;;;;;;27.33;18.85;;;12.10;87.80;;;;;;5065610;28;20037;-70